Time;durP1;ratioP1;P1;durP2;ratioP2;P2;SDS_P1;SDS_P2;PMS_P1;PMS_P2;Temp;Humidity;BMP_temperature;BMP_pressure;BME280_temperature;BME280_humidity;BME280_pressure;Samples;Min_cycle;Max_cycle;Signal;HPM_P1;HPM_P2
2023/01/17 00:00:36;;;;;;;46.20;10.30;;;;;;;;;;5054597;28;20991;-60
2023/01/17 00:03:04;;;;;;;28.17;7.90;;;3.90;99.90;;;;;;5053665;28;21015;-60
2023/01/17 00:10:59;;;;;;;37.70;9.73;;;3.80;99.90;;;;;;5039063;28;20505;-60
2023/01/17 00:13:27;;;;;;;52.63;13.23;;;3.80;99.90;;;;;;5050947;28;20498;-61
2023/01/17 00:15:54;;;;;;;51.33;9.17;;;3.90;99.90;;;;;;5051978;28;20480;-60
2023/01/17 00:18:21;;;;;;;39.70;9.97;;;;;;;;;;5051112;28;21362;-60
2023/01/17 00:26:21;;;;;;;44.27;10.17;;;4.00;99.90;;;;;;5019690;28;20486;-60
2023/01/17 01:35:47;;;;;;;41.53;9.63;;;3.80;99.90;;;;;;5052288;28;20561;-61
2023/01/17 01:38:13;;;;;;;43.07;9.00;;;3.90;99.90;;;;;;5051347;28;20840;-60
2023/01/17 01:40:44;;;;;;;58.67;10.87;;;;;;;;;;5049707;28;20484;-60
2023/01/17 01:43:13;;;;;;;57.27;10.40;;;4.10;99.90;;;;;;5051604;28;20490;-60
2023/01/17 01:45:41;;;;;;;45.37;9.70;;;;;;;;;;5052875;28;20486;-60
2023/01/17 01:48:23;;;;;;;29.83;6.73;;;4.10;99.90;;;;;;5053712;28;20978;-60
2023/01/17 01:50:51;;;;;;;42.43;8.33;;;4.10;99.90;;;;;;5044360;28;20474;-60
2023/01/17 01:53:20;;;;;;;45.63;7.80;;;4.10;99.90;;;;;;5060565;28;20482;-59
2023/01/17 01:55:48;;;;;;;39.50;8.83;;;;;;;;;;5058994;28;20483;-60
2023/01/17 01:58:20;;;;;;;54.20;10.27;;;4.10;99.90;;;;;;5058079;28;20564;-59
2023/01/17 02:00:47;;;;;;;38.47;8.77;;;4.00;99.90;;;;;;5059063;28;20471;-60
2023/01/17 02:03:17;;;;;;;26.73;5.40;;;;;;;;;;5059175;28;20479;-60
2023/01/17 02:05:44;;;;;;;65.87;10.73;;;;;;;;;;5058979;28;20483;-60
2023/01/17 02:08:14;;;;;;;32.40;7.23;;;;;;;;;;5056400;28;20475;-60
2023/01/17 02:10:42;;;;;;;52.57;9.63;;;;;;;;;;5058806;28;20570;-60
2023/01/17 02:13:10;;;;;;;41.00;7.73;;;;;;;;;;5059674;28;20556;-60
2023/01/17 02:15:43;;;;;;;63.63;11.97;;;3.90;99.90;;;;;;5058974;28;20487;-59
2023/01/17 02:18:17;;;;;;;33.20;8.97;;;;;;;;;;5059160;28;20486;-60
2023/01/17 02:21:08;;;;;;;52.40;9.93;;;3.80;99.90;;;;;;5041622;28;21148;-60
2023/01/17 02:23:45;;;;;;;92.80;17.10;;;;;;;;;;5043174;28;20494;-60
2023/01/17 02:26:36;;;;;;;48.13;8.70;;;3.70;99.90;;;;;;5076955;28;20473;-60
2023/01/17 02:29:34;;;;;;;31.83;6.97;;;3.70;99.90;;;;;;5057958;28;20479;-60
2023/01/17 02:32:08;;;;;;;53.77;10.23;;;3.70;99.90;;;;;;5045632;28;20479;-60
2023/01/17 02:34:45;;;;;;;39.37;11.30;;;3.70;99.90;;;;;;5055113;28;20483;-60
2023/01/17 02:37:17;;;;;;;27.07;6.17;;;3.70;99.90;;;;;;5055745;28;20482;-59
2023/01/17 02:39:51;;;;;;;45.83;10.00;;;3.70;99.90;;;;;;5051679;28;20492;-60
2023/01/17 02:42:19;;;;;;;33.33;7.73;;;;;;;;;;5047867;28;20483;-60
2023/01/17 02:44:46;;;;;;;35.27;7.40;;;3.70;99.90;;;;;;5062638;28;20477;-59
2023/01/17 02:47:23;;;;;;;45.07;9.73;;;7.00;99.90;;;;;;5062501;28;20559;-59
2023/01/17 02:49:51;;;;;;;26.97;7.27;;;3.70;99.90;;;;;;5059015;28;20890;-60
2023/01/17 02:52:37;;;;;;;50.80;9.80;;;3.70;99.90;;;;;;5054568;28;20840;-60
2023/01/17 02:55:08;;;;;;;24.17;6.63;;;;;;;;;;5052159;28;20480;-60
2023/01/17 02:57:50;;;;;;;56.20;11.17;;;3.80;99.90;;;;;;5046770;28;20479;-60
2023/01/17 03:00:23;;;;;;;44.37;9.63;;;5.90;99.90;;;;;;5081887;28;20663;-60
2023/01/17 03:03:02;;;;;;;33.10;6.30;;;3.80;99.90;;;;;;5054033;28;20861;-60
2023/01/17 03:05:33;;;;;;;40.37;9.57;;;;;;;;;;5057874;28;20469;-60
2023/01/17 03:08:01;;;;;;;48.80;9.67;;;3.90;99.90;;;;;;5053990;28;20829;-60
2023/01/17 03:10:31;;;;;;;41.57;10.10;;;3.90;99.90;;;;;;5053535;28;20489;-60
2023/01/17 03:12:59;;;;;;;31.27;7.20;;;3.90;99.90;;;;;;5058874;28;20475;-60
2023/01/17 03:15:26;;;;;;;36.23;9.73;;;3.90;99.90;;;;;;5053351;28;20471;-61
2023/01/17 03:17:59;;;;;;;43.50;9.53;;;3.80;99.90;;;;;;5062294;28;20831;-60
2023/01/17 03:20:26;;;;;;;48.53;10.67;;;;;;;;;;5054358;28;20479;-60
2023/01/17 03:22:53;;;;;;;46.20;8.57;;;2.60;99.90;;;;;;5058114;28;20550;-60
2023/01/17 03:25:20;;;;;;;46.13;11.37;;;;;;;;;;5049657;28;20492;-60
2023/01/17 03:27:47;;;;;;;41.87;8.53;;;3.70;99.90;;;;;;5056435;28;20998;-60
2023/01/17 03:30:14;;;;;;;39.43;8.30;;;;;;;;;;5057575;28;20583;-61
2023/01/17 03:32:41;;;;;;;34.10;7.20;;;3.60;99.90;;;;;;5057355;28;20832;-60
2023/01/17 03:35:10;;;;;;;22.20;5.73;;;3.60;99.90;;;;;;5056961;28;20995;-60
2023/01/17 03:37:36;;;;;;;38.17;8.40;;;3.60;99.90;;;;;;5055893;28;20537;-60
2023/01/17 03:40:04;;;;;;;24.27;6.03;;;;;;;;;;5057688;28;20479;-60
2023/01/17 03:42:31;;;;;;;79.43;15.70;;;;;;;;;;5057121;28;20506;-60
2023/01/17 03:44:57;;;;;;;45.00;9.30;;;3.60;99.90;;;;;;5057226;28;21037;-60
2023/01/17 03:47:24;;;;;;;53.20;11.30;;;;;;;;;;5055580;28;20482;-60
2023/01/17 03:49:52;;;;;;;43.70;10.33;;;;;;;;;;5061022;28;20496;-60
2023/01/17 03:52:20;;;;;;;52.63;9.63;;;3.80;99.90;;;;;;5074459;28;20532;-60
2023/01/17 03:54:47;;;;;;;52.43;10.70;;;;;;;;;;5057883;28;20602;-60
2023/01/17 03:57:14;;;;;;;51.10;10.30;;;3.60;99.90;;;;;;5055354;28;21346;-60
2023/01/17 03:59:41;;;;;;;79.07;13.33;;;;;;;;;;5051021;28;20591;-60
2023/01/17 04:02:08;;;;;;;40.63;9.60;;;;;;;;;;5056962;28;20498;-60
2023/01/17 04:04:35;;;;;;;83.40;14.60;;;3.40;99.90;;;;;;5057372;28;20490;-60
2023/01/17 04:07:01;;;;;;;41.67;7.70;;;3.50;99.90;;;;;;5055414;28;20479;-59
2023/01/17 04:09:32;;;;;;;99.20;16.20;;;3.40;99.90;;;;;;5056494;28;20479;-59
2023/01/17 04:11:59;;;;;;;59.83;8.80;;;3.40;99.90;;;;;;5057309;28;20476;-59
2023/01/17 04:14:26;;;;;;;96.53;14.80;;;;;;;;;;5055863;28;21002;-60
2023/01/17 04:16:56;;;;;;;54.30;9.70;;;3.40;99.90;;;;;;5039689;28;20479;-60
2023/01/17 04:19:23;;;;;;;28.47;5.53;;;;;;;;;;5052304;28;20983;-60
2023/01/17 04:21:50;;;;;;;57.17;8.40;;;;;;;;;;5056854;28;20476;-60
2023/01/17 04:24:17;;;;;;;33.77;5.97;;;;;;;;;;5056653;28;20480;-60
2023/01/17 04:26:45;;;;;;;40.13;7.80;;;3.20;99.90;;;;;;5050979;28;20494;-60
2023/01/17 04:29:12;;;;;;;31.80;6.60;;;;;;;;;;5053475;28;20537;-60
2023/01/17 04:31:39;;;;;;;59.60;11.77;;;;;;;;;;5056462;28;20487;-60
2023/01/17 04:34:06;;;;;;;42.47;8.60;;;;;;;;;;5057347;28;20487;-59
2023/01/17 04:36:33;;;;;;;89.47;14.83;;;;;;;;;;5054042;28;20483;-60
2023/01/17 04:39:00;;;;;;;54.93;9.50;;;;;;;;;;5056389;28;20471;-60
2023/01/17 04:41:27;;;;;;;85.43;13.20;;;;;;;;;;5056334;28;20487;-60
2023/01/17 04:43:55;;;;;;;41.87;7.70;;;;;;;;;;5056727;28;20486;-59
2023/01/17 04:46:22;;;;;;;68.03;11.93;;;;;;;;;;5053880;28;20475;-59
2023/01/17 04:48:49;;;;;;;48.97;9.30;;;;;;;;;;5056581;28;20475;-59
2023/01/17 04:51:16;;;;;;;41.73;7.10;;;;;;;;;;5056096;28;20498;-59
2023/01/17 04:53:43;;;;;;;48.27;7.80;;;;;;;;;;5050698;28;20483;-59
2023/01/17 04:56:10;;;;;;;45.67;9.97;;;;;;;;;;5052761;28;20898;-59
2023/01/17 04:58:37;;;;;;;52.60;10.00;;;3.80;99.90;;;;;;5056149;28;20474;-59
2023/01/17 05:01:07;;;;;;;33.33;8.33;;;3.90;99.90;;;;;;5052918;28;21093;-59
2023/01/17 05:03:34;;;;;;;58.27;11.67;;;4.00;99.90;;;;;;5054837;28;20471;-59
2023/01/17 05:06:01;;;;;;;36.77;7.63;;;4.00;99.90;;;;;;5051355;28;20506;-59
2023/01/17 05:08:28;;;;;;;69.40;13.60;;;4.20;99.90;;;;;;5053279;28;20486;-60
2023/01/17 05:10:55;;;;;;;28.80;5.80;;;4.20;99.90;;;;;;5064716;28;20481;-59
2023/01/17 05:13:22;;;;;;;45.53;9.70;;;;;;;;;;5060496;28;20484;-59
2023/01/17 05:15:49;;;;;;;44.40;8.50;;;;;;;;;;5054539;28;21098;-59
2023/01/17 05:18:18;;;;;;;42.93;8.97;;;4.10;99.90;;;;;;5052693;28;20681;-60
2023/01/17 05:20:45;;;;;;;36.07;6.70;;;;;;;;;;5072262;28;20481;-60
2023/01/17 05:23:12;;;;;;;41.27;9.80;;;;;;;;;;5062810;28;20478;-60
2023/01/17 05:25:43;;;;;;;29.70;8.10;;;4.00;99.90;;;;;;5054062;28;20475;-60
2023/01/17 05:28:11;;;;;;;37.03;8.37;;;;;;;;;;5054291;28;20487;-60
2023/01/17 05:30:38;;;;;;;55.63;10.50;;;;;;;;;;5055347;28;20479;-60
2023/01/17 05:33:06;;;;;;;32.60;9.20;;;;;;;;;;5054838;28;20495;-59
2023/01/17 05:35:35;;;;;;;66.73;12.97;;;;;;;;;;5054722;28;20700;-60
2023/01/17 05:38:02;;;;;;;25.57;6.73;;;;;;;;;;5044921;28;20481;-59
2023/01/17 05:40:30;;;;;;;63.73;12.80;;;4.20;99.90;;;;;;5070391;28;20472;-60
2023/01/17 05:42:59;;;;;;;48.87;9.83;;;;;;;;;;5055066;28;20546;-60
2023/01/17 05:45:28;;;;;;;44.53;10.07;;;4.10;99.90;;;;;;5055016;28;20486;-60
2023/01/17 05:47:56;;;;;;;29.37;7.70;;;4.00;99.90;;;;;;5051437;28;20483;-60
2023/01/17 05:50:24;;;;;;;53.60;11.97;;;3.80;99.90;;;;;;5055279;28;20487;-60
2023/01/17 05:52:54;;;;;;;44.03;8.77;;;3.90;99.90;;;;;;5056119;28;20476;-60
2023/01/17 05:55:22;;;;;;;48.03;9.77;;;4.00;99.90;;;;;;5054423;28;21004;-60
2023/01/17 05:57:49;;;;;;;47.63;7.43;;;;;;;;;;5054030;28;20479;-59
2023/01/17 06:00:16;;;;;;;49.70;9.77;;;4.10;99.90;;;;;;5054713;28;20483;-60
2023/01/17 06:02:44;;;;;;;46.53;8.80;;;4.10;99.90;;;;;;5071129;28;20486;-60
2023/01/17 06:05:12;;;;;;;42.13;8.50;;;4.10;99.90;;;;;;5061543;28;20482;-60
2023/01/17 06:07:39;;;;;;;59.10;10.83;;;;;;;;;;5053490;28;20486;-60
2023/01/17 06:10:09;;;;;;;34.23;7.63;;;4.30;99.90;;;;;;5054828;28;20492;-60
2023/01/17 06:12:36;;;;;;;59.57;11.60;;;;;;;;;;5058300;28;20469;-59
2023/01/17 06:15:03;;;;;;;33.00;7.67;;;4.50;99.90;;;;;;5066527;28;20478;-60
2023/01/17 06:17:30;;;;;;;52.97;11.83;;;;;;;;;;5053071;28;20491;-60
2023/01/17 06:19:57;;;;;;;54.77;9.60;;;;;;;;;;5055105;28;20868;-59
2023/01/17 06:22:24;;;;;;;67.70;11.70;;;;;;;;;;5049656;28;20487;-60
2023/01/17 06:24:51;;;;;;;35.77;8.17;;;4.70;99.90;;;;;;5054747;28;20486;-59
2023/01/17 06:27:19;;;;;;;40.50;9.03;;;4.70;99.90;;;;;;5053460;28;20471;-59
2023/01/17 06:29:46;;;;;;;39.40;9.83;;;4.60;99.90;;;;;;5055838;28;20485;-59
2023/01/17 06:32:13;;;;;;;29.03;6.83;;;4.60;99.90;;;;;;5054332;28;20483;-59
2023/01/17 06:34:40;;;;;;;38.87;9.00;;;4.60;99.90;;;;;;5054878;28;20714;-59
2023/01/17 06:37:07;;;;;;;34.23;7.10;;;;;;;;;;5055338;28;20773;-60
2023/01/17 06:39:34;;;;;;;54.17;12.70;;;;;;;;;;5057997;28;20494;-60
2023/01/17 06:42:01;;;;;;;30.60;8.07;;;4.80;99.90;;;;;;5056879;28;20502;-60
2023/01/17 06:44:30;;;;;;;57.80;13.50;;;;;;;;;;5057676;28;20924;-60
2023/01/17 06:46:57;;;;;;;39.57;10.13;;;;;;;;;;5055937;28;20852;-60
2023/01/17 06:49:24;;;;;;;46.77;11.97;;;4.70;99.90;;;;;;5056967;28;20475;-60
2023/01/17 06:51:50;;;;;;;42.57;7.73;;;4.50;99.90;;;;;;5058187;28;20498;-60
2023/01/17 06:54:17;;;;;;;31.07;8.13;;;4.40;99.90;;;;;;5057672;28;20483;-60
2023/01/17 06:56:44;;;;;;;44.07;10.10;;;;;;;;;;5056593;28;20479;-59
2023/01/17 06:59:11;;;;;;;41.67;8.90;;;;;;;;;;5057818;28;20493;-60
2023/01/17 07:01:40;;;;;;;34.63;9.50;;;4.40;99.90;;;;;;5058286;28;20812;-59
2023/01/17 07:04:07;;;;;;;22.80;6.70;;;4.50;99.90;;;;;;5058243;28;20472;-60
2023/01/17 07:06:35;;;;;;;50.83;11.70;;;4.40;99.90;;;;;;5040241;28;20494;-59
2023/01/17 07:09:03;;;;;;;41.27;8.87;;;4.50;99.90;;;;;;5058143;28;20479;-59
2023/01/17 07:11:30;;;;;;;46.60;10.97;;;4.40;99.90;;;;;;5057894;28;20588;-59
2023/01/17 07:13:57;;;;;;;40.77;8.30;;;;;;;;;;5057243;28;20489;-59
2023/01/17 07:16:24;;;;;;;52.20;12.00;;;4.30;99.90;;;;;;5054052;28;20991;-59
2023/01/17 07:18:53;;;;;;;38.03;9.73;;;;;;;;;;5056306;28;20920;-60
2023/01/17 07:21:20;;;;;;;27.53;7.50;;;4.20;99.90;;;;;;5058143;28;20564;-59
2023/01/17 07:23:48;;;;;;;21.63;6.97;;;;;;;;;;5058053;28;20563;-59
2023/01/17 07:26:16;;;;;;;35.33;10.63;;;;;;;;;;5056619;28;20803;-59
2023/01/17 07:28:42;;;;;;;27.70;7.67;;;3.80;99.90;;;;;;5057770;28;20562;-59
2023/01/17 07:31:09;;;;;;;26.53;7.30;;;;;;;;;;5057665;28;20595;-60
2023/01/17 07:33:36;;;;;;;54.67;10.60;;;;;;;;;;5058048;28;20486;-60
2023/01/17 07:36:06;;;;;;;38.10;10.87;;;3.80;99.90;;;;;;5054970;28;21010;-60
2023/01/17 07:38:33;;;;;;;44.33;11.70;;;3.90;99.90;;;;;;5072799;28;20841;-60
2023/01/17 07:41:00;;;;;;;34.70;8.97;;;4.00;99.90;;;;;;5054265;28;20475;-60
2023/01/17 07:43:27;;;;;;;55.47;13.00;;;4.10;99.90;;;;;;5055121;28;20906;-60
2023/01/17 07:45:54;;;;;;;32.40;9.20;;;4.20;99.90;;;;;;5055384;28;20483;-60
2023/01/17 07:48:22;;;;;;;51.33;9.47;;;;;;;;;;5054792;28;20487;-60
2023/01/17 07:50:52;;;;;;;25.70;7.73;;;4.30;99.90;;;;;;5058050;28;20484;-60
2023/01/17 07:53:21;;;;;;;29.57;7.87;;;;;;;;;;5057009;28;20544;-60
2023/01/17 07:55:48;;;;;;;39.90;8.60;;;4.50;99.90;;;;;;5057960;28;20510;-60
2023/01/17 07:58:14;;;;;;;33.10;8.53;;;7.50;99.90;;;;;;5053083;28;21143;-60
2023/01/17 08:00:43;;;;;;;32.80;7.90;;;4.60;99.90;;;;;;5057058;28;20941;-59
2023/01/17 08:03:12;;;;;;;34.33;9.67;;;4.60;99.90;;;;;;5056858;28;20593;-60
2023/01/17 08:05:40;;;;;;;54.60;10.83;;;;;;;;;;5056606;28;20972;-60
2023/01/17 08:08:07;;;;;;;33.63;8.97;;;;;;;;;;5055618;28;20587;-59
2023/01/17 08:10:35;;;;;;;44.40;11.10;;;;;;;;;;5056651;28;20475;-59
2023/01/17 08:13:02;;;;;;;48.07;9.23;;;4.60;99.90;;;;;;5056455;28;20492;-60
2023/01/17 08:15:29;;;;;;;83.10;15.23;;;;;;;;;;5056960;28;20566;-60
2023/01/17 08:17:57;;;;;;;39.53;7.50;;;4.70;99.90;;;;;;5056422;28;20472;-61
2023/01/17 08:20:24;;;;;;;73.33;14.40;;;4.70;99.90;;;;;;5057405;28;20489;-60
2023/01/17 08:22:54;;;;;;;44.53;7.97;;;4.80;99.90;;;;;;5057760;28;20494;-60
2023/01/17 08:25:21;;;;;;;53.87;10.27;;;;;;;;;;5055606;28;20499;-60
2023/01/17 08:27:49;;;;;;;45.93;8.80;;;4.80;99.90;;;;;;5055383;28;20812;-60
2023/01/17 08:30:16;;;;;;;62.30;11.70;;;6.20;99.90;;;;;;5057155;28;20468;-60
2023/01/17 08:32:43;;;;;;;40.40;9.53;;;;;;;;;;5056781;28;20821;-60
2023/01/17 08:35:10;;;;;;;37.40;9.80;;;;;;;;;;5055380;28;20486;-60
2023/01/17 08:37:37;;;;;;;68.13;14.20;;;4.90;99.90;;;;;;5055084;28;20471;-60
2023/01/17 08:40:05;;;;;;;70.77;12.80;;;4.90;99.90;;;;;;5056787;28;20905;-60
2023/01/17 08:42:36;;;;;;;76.67;14.47;;;;;;;;;;5055588;28;20480;-60
2023/01/17 08:45:05;;;;;;;76.50;12.97;;;4.80;99.90;;;;;;5055469;28;20487;-60
2023/01/17 08:47:33;;;;;;;90.63;15.60;;;;;;;;;;5053377;28;21006;-60
2023/01/17 08:50:00;;;;;;;42.17;8.27;;;;;;;;;;5054119;28;20869;-60
2023/01/17 08:52:27;;;;;;;66.20;12.63;;;;;;;;;;5055714;28;20476;-60
2023/01/17 08:54:54;;;;;;;53.37;9.80;;;5.20;99.90;;;;;;5054512;28;20490;-60
2023/01/17 08:57:21;;;;;;;43.13;9.80;;;;;;;;;;5054361;28;20864;-60
2023/01/17 08:59:48;;;;;;;57.07;10.13;;;;;;;;;;5076769;28;21019;-60
2023/01/17 09:02:18;;;;;;;30.30;9.17;;;5.40;99.90;;;;;;5056504;28;20479;-61
2023/01/17 09:04:45;;;;;;;50.60;12.33;;;5.40;99.90;;;;;;5056630;28;20896;-60
2023/01/17 09:07:12;;;;;;;35.33;10.47;;;5.50;99.90;;;;;;5053785;28;20483;-60
2023/01/17 09:09:39;;;;;;;53.33;11.63;;;5.60;99.90;;;;;;5056451;28;20481;-60
2023/01/17 09:12:06;;;;;;;30.60;7.80;;;;;;;;;;5055921;28;20479;-61
2023/01/17 09:14:33;;;;;;;46.93;11.60;;;;;;;;;;5051164;28;20923;-60
2023/01/17 09:17:00;;;;;;;50.20;9.20;;;;;;;;;;5080990;28;20492;-60
2023/01/17 09:19:29;;;;;;;73.37;12.47;;;;;;;;;;5052347;28;20483;-59
2023/01/17 09:21:56;;;;;;;31.83;7.53;;;;;;;;;;5060030;28;20477;-60
2023/01/17 09:24:23;;;;;;;63.13;10.53;;;;;;;;;;5067249;28;20511;-60
2023/01/17 09:26:50;;;;;;;60.13;10.53;;;;;;;;;;5054982;28;20487;-59
2023/01/17 09:29:17;;;;;;;44.47;8.73;;;;;;;;;;5055211;28;20486;-60
2023/01/17 09:31:45;;;;;;;57.87;9.80;;;5.70;99.90;;;;;;5056739;28;20829;-60
2023/01/17 09:34:13;;;;;;;67.57;11.50;;;;;;;;;;5043205;28;20475;-59
2023/01/17 09:36:41;;;;;;;71.53;11.53;;;5.60;99.90;;;;;;5054921;28;20834;-60
2023/01/17 09:39:08;;;;;;;61.73;10.50;;;;;;;;;;5052771;28;20472;-60
2023/01/17 09:41:40;;;;;;;96.27;15.20;;;5.70;99.90;;;;;;5052975;28;20853;-60
2023/01/17 09:44:20;;;;;;;37.43;9.20;;;5.70;99.90;;;;;;5071918;28;20478;-60
2023/01/17 09:46:49;;;;;;;45.50;8.40;;;;;;;;;;5049242;28;20471;-60
2023/01/17 09:49:30;;;;;;;44.50;9.53;;;5.70;99.90;;;;;;5039858;28;21028;-60
2023/01/17 09:51:58;;;;;;;51.10;9.40;;;5.60;99.90;;;;;;5072673;28;20991;-60
2023/01/17 09:54:32;;;;;;;48.47;9.40;;;5.60;99.90;;;;;;5055624;28;20982;-60
2023/01/17 09:57:02;;;;;;;43.70;8.97;;;5.70;99.90;;;;;;5053909;28;20476;-60
2023/01/17 09:59:37;;;;;;;98.20;15.00;;;5.70;99.90;;;;;;5051321;28;20475;-60
2023/01/17 10:02:16;;;;;;;35.27;7.17;;;5.80;99.90;;;;;;5056602;28;20483;-60
2023/01/17 10:05:04;;;;;;;53.50;8.90;;;5.80;99.90;;;;;;5069027;28;20477;-60
2023/01/17 10:07:43;;;;;;;96.27;15.70;;;5.80;99.90;;;;;;5045363;28;20475;-60
2023/01/17 10:10:25;;;;;;;37.20;8.70;;;6.00;99.90;;;;;;5054942;28;20458;-60
2023/01/17 10:12:56;;;;;;;37.10;8.07;;;;;;;;;;5046906;28;20483;-59
2023/01/17 10:15:47;;;;;;;45.87;11.67;;;6.30;99.90;;;;;;5057163;28;20517;-59
2023/01/17 10:18:28;;;;;;;49.07;10.33;;;6.50;99.90;;;;;;5065341;28;20471;-60
2023/01/17 10:21:02;;;;;;;42.13;8.20;;;6.60;99.90;;;;;;5051389;28;20485;-60
2023/01/17 10:23:38;;;;;;;78.37;12.33;;;;;;;;;;5056564;28;20483;-60
2023/01/17 10:26:10;;;;;;;51.73;10.77;;;6.80;99.90;;;;;;5052617;28;20483;-60
2023/01/17 10:28:45;;;;;;;59.50;10.70;;;;;;;;;;5056574;28;20494;-60
2023/01/17 10:31:15;;;;;;;36.87;7.17;;;6.90;99.90;;;;;;5055907;28;20819;-60
2023/01/17 10:33:48;;;;;;;43.30;9.30;;;7.00;99.90;;;;;;5058156;28;20490;-60
2023/01/17 10:36:20;;;;;;;38.60;9.80;;;6.90;99.90;;;;;;5057050;28;20835;-60
2023/01/17 10:38:50;;;;;;;31.47;6.80;;;;;;;;;;5059200;28;20574;-59
2023/01/17 10:41:22;;;;;;;51.83;9.33;;;7.00;99.90;;;;;;5054559;28;20856;-60
2023/01/17 10:43:57;;;;;;;44.70;8.37;;;9.10;99.90;;;;;;5083269;28;20479;-60
2023/01/17 10:46:28;;;;;;;58.93;12.07;;;7.40;99.90;;;;;;5047456;28;20475;-59
2023/01/17 10:48:55;;;;;;;28.37;6.60;;;;;;;;;;5058586;28;20543;-60
2023/01/17 10:51:42;;;;;;;73.10;12.83;;;7.60;99.90;;;;;;5058529;28;20481;-59
2023/01/17 10:54:14;;;;;;;42.53;7.57;;;;;;;;;;5056894;28;20893;-59
2023/01/17 10:56:41;;;;;;;43.27;8.80;;;8.00;99.90;;;;;;5056604;28;20501;-59
2023/01/17 10:59:25;;;;;;;26.90;6.80;;;8.30;99.90;;;;;;5059170;28;20479;-59
2023/01/17 11:01:52;;;;;;;30.40;6.83;;;8.40;99.90;;;;;;5058300;28;20467;-60
2023/01/17 11:04:20;;;;;;;35.33;8.33;;;;;;;;;;5058600;28;20486;-60
2023/01/17 11:06:47;;;;;;;30.23;6.37;;;8.70;99.90;;;;;;5055384;28;20503;-60
2023/01/17 11:09:16;;;;;;;25.93;6.23;;;12.30;99.90;;;;;;5057710;28;20475;-60
2023/01/17 11:11:49;;;;;;;31.63;7.27;;;8.80;99.90;;;;;;5057954;28;20545;-60
2023/01/17 11:14:19;;;;;;;40.10;6.10;;;8.50;98.50;;;;;;5057037;28;21019;-60
2023/01/17 11:16:58;;;;;;;43.07;7.90;;;8.50;98.60;;;;;;5056083;28;20568;-60
2023/01/17 11:19:29;;;;;;;38.53;8.37;;;8.50;99.00;;;;;;5047050;28;20483;-60
2023/01/17 11:22:00;;;;;;;43.67;8.80;;;8.50;99.00;;;;;;5054746;28;20934;-60
2023/01/17 11:24:34;;;;;;;30.20;6.37;;;8.50;99.30;;;;;;5055997;28;20507;-60
2023/01/17 11:27:03;;;;;;;33.40;6.67;;;8.50;99.50;;;;;;5075592;28;20474;-60
2023/01/17 11:29:36;;;;;;;73.03;13.57;;;11.80;99.90;;;;;;5055966;28;20482;-60
2023/01/17 11:32:29;;;;;;;50.90;8.00;;;8.60;98.30;;;;;;5055629;28;20481;-60
2023/01/17 11:35:17;;;;;;;32.50;6.50;;;8.40;97.70;;;;;;5057536;28;20534;-60
2023/01/17 11:37:52;;;;;;;38.77;6.03;;;8.40;99.10;;;;;;5056680;28;20505;-60
2023/01/17 11:40:25;;;;;;;34.17;7.37;;;8.40;97.90;;;;;;5056628;28;20479;-60
2023/01/17 11:43:17;;;;;;;36.97;6.73;;;8.20;97.00;;;;;;5054539;28;20487;-60
2023/01/17 11:45:45;;;;;;;44.63;7.30;;;8.20;97.70;;;;;;5053476;28;20974;-60
2023/01/17 11:48:14;;;;;;;45.43;7.93;;;8.10;97.70;;;;;;5055192;28;20880;-60
2023/01/17 11:50:42;;;;;;;29.27;5.40;;;;;;;;;;5054936;28;20487;-60
2023/01/17 11:53:20;;;;;;;45.80;9.07;;;8.00;97.90;;;;;;5058040;28;21127;-60
2023/01/17 11:56:04;;;;;;;47.47;8.27;;;8.10;98.00;;;;;;5056990;28;20972;-60
2023/01/17 11:58:32;;;;;;;73.73;11.90;;;8.00;96.90;;;;;;5056291;28;20486;-59
2023/01/17 12:01:06;;;;;;;38.37;10.00;;;7.90;97.30;;;;;;5057872;28;20720;-61
2023/01/17 12:03:52;;;;;;;90.90;21.33;;;7.90;97.40;;;;;;5056879;28;20475;-60
2023/01/17 12:06:28;;;;;;;70.47;14.53;;;7.90;98.60;;;;;;5055071;28;20491;-61
2023/01/17 12:09:09;;;;;;;40.13;6.97;;;7.70;96.80;;;;;;5056491;28;20479;-60
2023/01/17 12:13:59;;;;;;;50.73;10.83;;;7.40;96.20;;;;;;5056609;28;20851;-60
2023/01/17 12:14:44;;;;;;;56.97;13.40;;;7.30;97.30;;;;;;5047188;28;20480;-60
2023/01/17 12:17:22;;;;;;;31.97;6.40;;;7.50;98.80;;;;;;5055444;28;21318;-60
2023/01/17 12:19:59;;;;;;;24.30;5.20;;;;;;;;;;5057513;28;20522;-60
2023/01/17 12:22:33;;;;;;;42.20;10.27;;;;;;;;;;5056606;28;20479;-60
2023/01/17 12:25:20;;;;;;;29.97;7.43;;;7.50;97.80;;;;;;5056906;28;20470;-60
2023/01/17 12:27:54;;;;;;;53.63;9.43;;;7.60;98.10;;;;;;5052244;28;20491;-60
2023/01/17 12:30:46;;;;;;;34.03;6.93;;;7.50;97.70;;;;;;5053787;28;20843;-61
2023/01/17 12:33:21;;;;;;;32.07;7.10;;;7.50;97.90;;;;;;5056333;28;20735;-61
2023/01/17 12:35:51;;;;;;;37.70;6.60;;;;;;;;;;5055064;28;20490;-61
2023/01/17 12:38:24;;;;;;;42.70;8.77;;;7.40;98.10;;;;;;5052999;28;21269;-60
2023/01/17 12:40:57;;;;;;;53.53;9.57;;;7.40;97.90;;;;;;5057246;28;20471;-60
2023/01/17 12:43:31;;;;;;;51.30;9.30;;;7.30;97.60;;;;;;5077375;28;20471;-60
2023/01/17 12:46:00;;;;;;;43.43;9.70;;;7.30;98.40;;;;;;5060341;28;20493;-61
2023/01/17 12:48:30;;;;;;;113.40;26.87;;;;;;;;;;5061423;28;20592;-60
2023/01/17 12:51:02;;;;;;;54.80;11.07;;;7.30;98.20;;;;;;5052018;28;20877;-61
2023/01/17 12:53:32;;;;;;;89.30;12.73;;;;;;;;;;5049098;28;21001;-60
2023/01/17 12:56:00;;;;;;;50.83;8.90;;;;;;;;;;5053543;28;20483;-61
2023/01/17 12:58:35;;;;;;;87.07;13.47;;;7.20;98.20;;;;;;5054176;28;20472;-61
2023/01/17 13:01:07;;;;;;;47.43;8.50;;;7.10;98.80;;;;;;5053129;28;20478;-60
2023/01/17 13:03:47;;;;;;;80.13;10.50;;;7.00;98.50;;;;;;5044222;28;20593;-60
2023/01/17 13:06:24;;;;;;;78.07;12.60;;;7.00;98.70;;;;;;5053112;28;20479;-60
2023/01/17 13:08:54;;;;;;;39.90;6.53;;;;;;;;;;5053788;28;20556;-60
2023/01/17 13:11:26;;;;;;;44.63;7.17;;;;;;;;;;5054506;28;21035;-61
2023/01/17 13:13:56;;;;;;;46.33;7.53;;;6.90;99.20;;;;;;5053604;28;20826;-60
2023/01/17 13:16:31;;;;;;;71.30;10.00;;;6.80;98.80;;;;;;5052576;28;20511;-60
2023/01/17 13:19:04;;;;;;;43.40;7.10;;;6.90;99.10;;;;;;5056661;28;20471;-60
2023/01/17 13:21:32;;;;;;;78.10;12.20;;;;;;;;;;5076459;28;20475;-60
2023/01/17 13:24:28;;;;;;;46.07;6.60;;;6.90;98.90;;;;;;5055338;28;20495;-60
2023/01/17 13:27:36;;;;;;;45.47;7.70;;;6.90;98.60;;;;;;5053918;28;20558;-60
2023/01/17 13:30:26;;;;;;;37.87;5.80;;;6.90;98.70;;;;;;5054047;28;20483;-61
2023/01/17 13:33:09;;;;;;;40.40;7.07;;;6.80;98.60;;;;;;5052086;28;20522;-60
2023/01/17 13:35:41;;;;;;;76.30;13.03;;;6.80;98.20;;;;;;5047529;28;20639;-60
2023/01/17 13:38:39;;;;;;;46.90;8.53;;;6.90;98.30;;;;;;5050915;28;20483;-60
2023/01/17 13:41:15;;;;;;;48.53;8.10;;;6.80;98.20;;;;;;5051829;28;20467;-61
2023/01/17 13:44:20;;;;;;;40.13;8.90;;;7.00;98.60;;;;;;5044387;28;20467;-60
2023/01/17 13:47:00;;;;;;;43.13;10.20;;;6.70;98.30;;;;;;5045731;28;21045;-61
2023/01/17 13:49:44;;;;;;;49.57;10.40;;;6.80;98.90;;;;;;5066416;28;20575;-61
2023/01/17 13:52:30;;;;;;;23.37;6.13;;;6.90;98.90;;;;;;5055704;28;20467;-60
2023/01/17 13:54:58;;;;;;;29.47;6.87;;;6.90;98.90;;;;;;5055820;28;20926;-60
2023/01/17 13:57:40;;;;;;;40.00;9.00;;;6.90;98.50;;;;;;5052016;28;20570;-60
2023/01/17 14:00:49;;;;;;;32.00;6.53;;;6.90;98.50;;;;;;5055348;28;20799;-60
2023/01/17 14:03:55;;;;;;;30.43;6.47;;;6.80;98.40;;;;;;5053571;28;21011;-60
2023/01/17 14:06:29;;;;;;;52.13;10.93;;;;;;;;;;5028394;28;21166;-60
2023/01/17 14:09:00;;;;;;;35.20;8.03;;;;;;;;;;5055161;28;20570;-60
2023/01/17 14:11:27;;;;;;;46.33;9.00;;;;;;;;;;5054057;28;20995;-60
2023/01/17 14:13:54;;;;;;;25.33;5.40;;;6.70;98.70;;;;;;5055536;28;20492;-60
2023/01/17 14:16:27;;;;;;;47.93;10.80;;;6.60;98.40;;;;;;5069748;28;20515;-60
2023/01/17 14:18:56;;;;;;;32.53;7.57;;;6.60;98.70;;;;;;5044064;28;20481;-60
2023/01/17 14:21:25;;;;;;;15.83;5.07;;;6.50;98.20;;;;;;5064890;28;20481;-60
2023/01/17 14:23:58;;;;;;;18.60;4.70;;;6.50;98.30;;;;;;5047468;28;20964;-60
2023/01/17 14:26:40;;;;;;;28.57;8.33;;;6.50;98.60;;;;;;5051988;28;20738;-59
2023/01/17 14:29:44;;;;;;;18.90;5.13;;;6.50;98.60;;;;;;5054865;28;20791;-60
2023/01/17 14:32:12;;;;;;;25.33;4.97;;;6.50;98.40;;;;;;5050911;28;20478;-60
2023/01/17 14:34:42;;;;;;;22.80;7.03;;;6.50;98.60;;;;;;5054387;28;20498;-60
2023/01/17 14:37:17;;;;;;;17.07;4.87;;;6.50;98.20;;;;;;5051090;28;20540;-60
2023/01/17 14:39:45;;;;;;;21.47;5.90;;;6.40;98.10;;;;;;5054555;28;20487;-60
2023/01/17 14:42:14;;;;;;;18.87;4.70;;;;;;;;;;5055560;28;20588;-60
2023/01/17 14:44:44;;;;;;;21.63;6.40;;;6.40;98.30;;;;;;5053769;28;20487;-60
2023/01/17 14:47:13;;;;;;;19.33;5.10;;;6.50;98.70;;;;;;5052204;28;20838;-60
2023/01/17 14:49:41;;;;;;;25.20;7.87;;;6.50;98.40;;;;;;5055027;28;21131;-60
2023/01/17 14:52:15;;;;;;;20.03;5.43;;;6.50;97.90;;;;;;5056619;28;20487;-60
2023/01/17 14:54:47;;;;;;;44.03;7.63;;;;;;;;;;5053822;28;20479;-60
2023/01/17 14:57:15;;;;;;;28.67;7.10;;;;;;;;;;5053742;28;20486;-60